EPSY

Szczytno-Szymany International Airport

Poland
TAF EPSY 211730Z 2118/2203 VRB03KT CAVOK
Issued Valid From Valid To
Jul-21 @ 17:30 UTC
(6 hours ago)
Jul-21 @ 18:00 UTC
(5 hours ago)
Jul-22 @ 03:00 UTC
(in 4 hours)
Jul-21 @ 18:00 to Jul-22 @ 03:00
TAF EPSY 211730Z 2118/2203 VRB03KT CAVOK
Wind Visibility Clouds Conditions
Variable at 3 knots 10,000+ meters
  • No significant clouds
TAF EPSY 211730Z 2118/2203 VRB03KT CAVOK
Issued Jul-21 @ 17:30 UTC
(6 hours ago)
Valid From Jul-21 @ 18:00 UTC
(5 hours ago)
Valid To Jul-22 @ 03:00 UTC
(in 4 hours)
Jul-21 @ 18:00 - Jul-22 @ 03:00
Wind Visibility
Variable at 3 knots 10,000+ meters
Clouds
  • No significant clouds
Conditions